createdAt,value
2023-01-01T00:00:06.534Z,5.35
2023-01-01T00:02:37.104Z,5.50
2023-01-01T00:05:05.977Z,3.22
2023-01-01T00:07:33.535Z,2.70
2023-01-01T00:10:18.638Z,2.95
2023-01-01T00:12:46.155Z,2.15
2023-01-01T00:15:13.688Z,2.33
2023-01-01T00:17:42.541Z,2.00
2023-01-01T00:20:11.026Z,1.90
2023-01-01T00:22:55.724Z,2.08
2023-01-01T00:25:24.327Z,2.00
2023-01-01T00:27:52.193Z,1.73
2023-01-01T00:30:20.109Z,1.60
2023-01-01T00:32:54.645Z,1.67
2023-01-01T00:35:23.460Z,2.40
2023-01-01T00:37:50.939Z,2.10
2023-01-01T00:40:18.975Z,2.08
2023-01-01T00:42:46.628Z,1.75
2023-01-01T00:45:20.476Z,1.70
2023-01-01T00:47:49.844Z,1.42
2023-01-01T00:50:17.383Z,1.50
2023-01-01T00:52:45.047Z,1.85
2023-01-01T00:55:12.686Z,1.52
2023-01-01T00:57:40.240Z,1.73
2023-01-01T01:00:10.073Z,1.60
2023-01-01T01:02:37.658Z,1.80
2023-01-01T01:05:07.818Z,1.65
2023-01-01T01:07:36.822Z,1.60
2023-01-01T01:10:04.870Z,1.40
2023-01-01T01:12:32.349Z,1.90
2023-01-01T01:14:59.833Z,1.80
2023-01-01T01:17:27.358Z,1.90
2023-01-01T01:19:54.858Z,1.90
2023-01-01T01:22:28.339Z,1.67
2023-01-01T01:24:56.511Z,1.90
2023-01-01T01:27:24.200Z,1.90
2023-01-01T01:29:51.681Z,2.38
2023-01-01T01:32:19.372Z,2.15
2023-01-01T01:34:47.143Z,2.75
2023-01-01T01:37:14.708Z,2.08
2023-01-01T01:39:43.559Z,2.40
2023-01-01T01:42:17.502Z,2.15
2023-01-01T01:45:03.611Z,2.38
2023-01-01T01:47:36.796Z,2.75
2023-01-01T01:50:10.127Z,3.28
2023-01-01T01:52:40.935Z,5.25
2023-01-01T01:55:10.783Z,5.15
2023-01-01T01:57:40.083Z,5.10
2023-01-01T02:00:11.447Z,5.40
2023-01-01T02:02:46.524Z,4.20
2023-01-01T02:05:14.177Z,4.93
2023-01-01T02:07:42.396Z,4.60
2023-01-01T02:10:11.448Z,4.78
2023-01-01T02:12:39.166Z,5.50
2023-01-01T02:15:08.471Z,4.90
2023-01-01T02:17:41.251Z,4.70
2023-01-01T02:20:22.869Z,4.03
2023-01-01T02:23:25.050Z,4.30
2023-01-01T02:26:09.661Z,4.57
2023-01-01T02:28:51.507Z,6.88
2023-01-01T02:31:24.245Z,7.25
2023-01-01T02:33:55.258Z,7.88
2023-01-01T02:36:25.342Z,8.40
2023-01-01T02:38:56.325Z,8.00
2023-01-01T02:41:27.342Z,8.13
2023-01-01T02:48:52.457Z,19.73
2023-01-01T02:51:29.277Z,21.42
2023-01-01T02:54:03.323Z,21.33
2023-01-01T02:56:39.945Z,23.08
2023-01-01T02:59:36.960Z,24.15
2023-01-01T03:02:13.665Z,25.88
2023-01-01T03:04:53.536Z,24.25
2023-01-01T03:07:27.974Z,23.58
2023-01-01T03:10:00.234Z,23.45
2023-01-01T03:12:40.478Z,23.75
2023-01-01T03:15:20.952Z,22.17
2023-01-01T03:17:54.465Z,23.17
2023-01-01T03:20:29.623Z,24.40
2023-01-01T03:23:03.069Z,23.17
2023-01-01T03:25:35.043Z,24.27
2023-01-01T03:28:08.611Z,22.67
2023-01-01T03:30:39.810Z,20.42
2023-01-01T03:33:13.337Z,21.95
2023-01-01T03:35:47.002Z,20.98
2023-01-01T03:38:20.583Z,20.63
2023-01-01T03:40:51.420Z,21.15
2023-01-01T03:43:26.206Z,20.20
2023-01-01T03:45:57.984Z,18.35
2023-01-01T03:48:25.538Z,18.53
2023-01-01T03:51:02.891Z,20.23
2023-01-01T03:53:40.500Z,18.52
2023-01-01T03:56:18.110Z,18.15
2023-01-01T03:58:53.620Z,19.63
2023-01-01T04:01:27.392Z,18.52
2023-01-01T04:03:55.591Z,19.88
2023-01-01T04:06:23.294Z,18.05
2023-01-01T04:08:54.899Z,18.95
2023-01-01T04:11:45.950Z,15.85
2023-01-01T04:14:13.412Z,14.52
2023-01-01T04:16:42.562Z,16.58
2023-01-01T04:19:10.054Z,12.20
2023-01-01T04:21:37.528Z,16.35
2023-01-01T04:24:05.392Z,17.73
2023-01-01T04:26:32.882Z,17.30
2023-01-01T04:29:00.340Z,19.63
2023-01-01T04:31:27.857Z,19.73
2023-01-01T04:33:56.695Z,18.40
2023-01-01T04:36:24.233Z,16.50
2023-01-01T04:38:51.787Z,10.27
2023-01-01T04:41:19.385Z,10.13
2023-01-01T04:43:49.747Z,10.65
2023-01-01T04:46:18.181Z,8.95
2023-01-01T04:48:45.976Z,10.00
2023-01-01T04:51:17.127Z,9.98
2023-01-01T04:53:45.163Z,9.70
2023-01-01T04:56:14.350Z,10.25
2023-01-01T04:58:43.373Z,10.23
2023-01-01T05:01:17.200Z,9.40
2023-01-01T05:03:44.813Z,8.85
2023-01-01T05:06:13.913Z,10.40
2023-01-01T05:08:44.928Z,8.20
2023-01-01T06:39:25.402Z,6.78
2023-01-01T06:41:52.857Z,5.82
2023-01-01T06:44:20.363Z,6.38
2023-01-01T06:46:47.831Z,5.15
2023-01-01T06:59:57.115Z,5.50
2023-01-01T07:02:24.791Z,5.57
2023-01-01T07:04:52.409Z,5.38
2023-01-01T07:07:19.960Z,5.53
2023-01-01T07:09:47.462Z,5.68
2023-01-01T07:12:14.994Z,5.05
2023-01-01T07:14:42.773Z,5.18
2023-01-01T07:17:11.735Z,4.80
2023-01-01T07:19:39.236Z,5.13
2023-01-01T07:22:06.782Z,3.97
2023-01-01T07:24:34.369Z,5.22
2023-01-01T07:27:01.869Z,4.22
2023-01-01T07:29:29.424Z,3.90
2023-01-01T07:31:56.908Z,3.92
2023-01-01T07:34:25.758Z,3.80
2023-01-01T07:36:53.256Z,4.93
2023-01-01T07:39:20.767Z,3.95
2023-01-01T07:41:48.278Z,3.92
2023-01-01T07:44:15.829Z,3.85
2023-01-01T07:46:43.597Z,3.53
2023-01-01T07:49:11.101Z,3.65
2023-01-01T07:51:39.963Z,5.20
2023-01-01T07:54:07.820Z,4.30
2023-01-01T07:56:36.273Z,4.50
2023-01-01T07:59:04.045Z,4.00
2023-01-01T08:01:31.684Z,3.40
2023-01-01T08:03:59.320Z,3.95
2023-01-01T08:06:26.832Z,3.25
2023-01-01T08:08:55.707Z,3.25
2023-01-01T08:11:23.288Z,2.97
2023-01-01T08:13:50.892Z,2.58
2023-01-01T08:16:18.493Z,2.88
2023-01-01T08:18:47.467Z,2.42
2023-01-01T08:21:14.961Z,2.42
2023-01-01T08:23:42.443Z,2.53
2023-01-01T08:26:17.102Z,2.28
2023-01-01T08:28:45.279Z,2.65
2023-01-01T08:31:12.849Z,2.17
2023-01-01T08:33:40.445Z,2.10
2023-01-01T08:36:10.802Z,2.13
2023-01-01T08:38:38.337Z,2.03
2023-01-01T08:41:06.068Z,2.08
2023-01-01T08:43:35.054Z,2.72
2023-01-01T08:46:02.574Z,2.67
2023-01-01T08:48:31.049Z,2.13
2023-01-01T08:51:01.198Z,2.15
2023-01-01T08:53:28.848Z,2.70
2023-01-01T08:55:57.832Z,2.50
2023-01-01T08:58:25.547Z,2.65
2023-01-01T09:00:55.266Z,2.40
2023-01-01T09:03:23.344Z,2.35
2023-01-01T09:05:51.104Z,2.47
2023-01-01T09:08:19.113Z,2.50
2023-01-01T09:10:47.039Z,3.15
2023-01-01T09:13:17.231Z,2.92
2023-01-01T09:15:44.929Z,2.80
2023-01-01T09:18:14.061Z,2.47
2023-01-01T09:20:42.265Z,2.58
2023-01-01T09:23:11.128Z,2.10
2023-01-01T09:25:39.186Z,2.42
2023-01-01T09:28:08.219Z,2.25
2023-01-01T09:30:36.901Z,1.90
2023-01-01T09:33:04.916Z,2.10
2023-01-01T09:35:33.804Z,2.28
2023-01-01T09:38:01.323Z,2.22
2023-01-01T09:40:34.070Z,2.33
2023-01-01T09:43:12.139Z,1.88
2023-01-01T09:45:49.598Z,2.05
2023-01-01T09:48:17.658Z,1.90
2023-01-01T09:50:47.822Z,2.25
2023-01-01T09:53:19.876Z,2.00
2023-01-01T09:55:52.181Z,2.45
2023-01-01T09:58:22.878Z,2.17
2023-01-01T10:00:54.378Z,2.28
2023-01-01T10:03:34.369Z,2.00
2023-01-01T10:06:16.430Z,2.25
2023-01-01T10:09:07.094Z,2.25
2023-01-01T10:11:47.328Z,1.80
2023-01-01T10:14:20.027Z,2.00
2023-01-01T10:19:27.234Z,1.92
2023-01-01T10:22:01.815Z,2.20
2023-01-01T10:24:38.503Z,2.17
2023-01-01T10:27:07.541Z,1.70
2023-01-01T10:29:41.972Z,1.95
2023-01-01T10:32:21.475Z,1.95
2023-01-01T10:34:52.033Z,2.30
2023-01-01T10:37:21.718Z,1.65
2023-01-01T10:39:49.996Z,2.40
2023-01-01T10:42:17.720Z,1.92
2023-01-01T10:44:45.804Z,1.83
2023-01-01T10:47:26.436Z,2.97
2023-01-01T10:49:59.488Z,2.60
2023-01-01T10:52:31.733Z,2.58
2023-01-01T10:55:00.712Z,2.28
2023-01-01T10:57:34.523Z,1.85
2023-01-01T11:00:26.412Z,2.17
2023-01-01T11:03:15.427Z,2.55
2023-01-01T11:06:02.288Z,2.20
2023-01-01T11:08:33.632Z,2.17
2023-01-01T11:11:03.367Z,2.22
2023-01-01T11:13:32.246Z,2.00
2023-01-01T11:16:00.564Z,2.38
2023-01-01T11:18:35.598Z,2.35
2023-01-01T11:21:06.211Z,2.38
2023-01-01T11:23:36.916Z,2.35
2023-01-01T11:26:07.651Z,1.80
2023-01-01T11:28:37.132Z,1.75
2023-01-01T11:31:11.404Z,1.52
2023-01-01T11:33:45.548Z,1.75
2023-01-01T11:36:13.538Z,1.80
2023-01-01T11:38:42.507Z,1.75
2023-01-01T11:41:10.115Z,1.65
2023-01-01T11:43:44.719Z,1.88
2023-01-01T11:46:19.051Z,1.52
2023-01-01T11:48:46.646Z,1.75
2023-01-01T11:51:31.215Z,1.33
2023-01-01T11:54:12.154Z,1.58
2023-01-01T11:56:40.418Z,2.20
2023-01-01T11:59:15.823Z,1.67
2023-01-01T12:01:48.233Z,1.73
2023-01-01T12:04:20.923Z,1.60
2023-01-01T12:06:54.178Z,1.65
2023-01-01T12:09:29.431Z,1.70
2023-01-01T12:12:05.062Z,1.85
2023-01-01T12:14:40.106Z,1.45
2023-01-01T12:17:15.651Z,1.48
2023-01-01T12:19:54.617Z,1.60
2023-01-01T12:22:22.279Z,1.70
2023-01-01T12:24:52.501Z,1.50
2023-01-01T12:27:36.007Z,1.33
2023-01-01T12:30:14.347Z,1.63
2023-01-01T12:33:07.537Z,1.98
2023-01-01T12:35:49.086Z,2.00
2023-01-01T12:38:31.829Z,3.92
2023-01-01T12:41:09.096Z,4.68
2023-01-01T12:43:44.940Z,3.15
2023-01-01T12:46:44.009Z,2.60
2023-01-01T12:49:31.814Z,2.72
2023-01-01T12:52:10.441Z,2.97
2023-01-01T12:55:12.803Z,2.33
2023-01-01T12:57:49.622Z,2.42
2023-01-01T13:00:19.532Z,1.92
2023-01-01T13:02:51.620Z,2.25
2023-01-01T13:05:23.319Z,2.95
2023-01-01T13:07:55.390Z,1.50
2023-01-01T13:10:27.387Z,1.95
2023-01-01T13:12:56.979Z,2.13
2023-01-01T13:15:45.424Z,1.83
2023-01-01T13:18:23.179Z,1.83
2023-01-01T13:20:57.839Z,1.63
2023-01-01T13:23:49.143Z,1.55
2023-01-01T13:26:40.038Z,1.70
2023-01-01T13:29:32.621Z,2.15
2023-01-01T13:32:02.820Z,1.38
2023-01-01T13:34:49.782Z,1.70
2023-01-01T13:37:44.361Z,1.80
2023-01-01T13:40:34.042Z,1.80
2023-01-01T13:43:19.007Z,1.52
2023-01-01T13:49:20.367Z,2.10
2023-01-01T13:52:05.800Z,2.00
2023-01-01T13:55:06.430Z,2.33
2023-01-01T13:58:00.678Z,1.92
2023-01-01T14:00:33.326Z,2.42
2023-01-01T14:03:05.202Z,1.70
2023-01-01T14:05:37.093Z,1.58
2023-01-01T14:08:11.544Z,1.75
2023-01-01T14:10:40.717Z,1.77
2023-01-01T14:13:17.872Z,2.33
2023-01-01T14:15:54.263Z,2.10
2023-01-01T14:18:28.177Z,2.00
2023-01-01T14:20:56.053Z,2.00
2023-01-01T14:23:30.980Z,2.10
2023-01-01T14:25:59.609Z,1.73
2023-01-01T14:28:29.147Z,1.95
2023-01-01T14:30:58.452Z,2.40
2023-01-01T14:33:29.739Z,2.35
2023-01-01T14:36:00.386Z,2.33
2023-01-01T14:38:30.439Z,3.30
2023-01-01T14:41:07.605Z,3.05
2023-01-01T14:43:37.455Z,3.20
2023-01-01T14:46:11.197Z,3.30
2023-01-01T14:48:44.136Z,3.10
2023-01-01T14:51:14.600Z,2.30
2023-01-01T14:53:44.020Z,2.45
2023-01-01T14:56:11.604Z,2.53
2023-01-01T14:58:41.526Z,2.30
2023-01-01T15:01:16.892Z,2.38
2023-01-01T15:03:58.041Z,2.08
2023-01-01T15:06:26.153Z,2.50
2023-01-01T15:08:54.161Z,2.85
2023-01-01T15:11:28.519Z,2.65
2023-01-01T15:13:59.640Z,2.63
2023-01-01T15:16:27.779Z,3.58
2023-01-01T15:18:57.967Z,3.25
2023-01-01T15:21:37.025Z,3.05
2023-01-01T15:24:11.113Z,3.05
2023-01-01T15:26:43.003Z,2.65
2023-01-01T15:29:12.905Z,2.60
2023-01-01T15:31:43.295Z,3.38
2023-01-01T15:34:24.041Z,2.92
2023-01-01T15:36:54.070Z,2.88
2023-01-01T15:39:21.991Z,2.60
2023-01-01T15:41:50.977Z,2.45
2023-01-01T15:44:27.803Z,2.15
2023-01-01T15:47:06.115Z,2.90
2023-01-01T15:49:34.918Z,2.42
2023-01-01T15:52:06.441Z,2.38
2023-01-01T15:54:38.257Z,2.90
2023-01-01T15:57:17.855Z,2.97
2023-01-01T15:59:45.911Z,3.05
2023-01-01T16:02:20.668Z,2.67
2023-01-01T16:04:51.269Z,2.75
2023-01-01T16:07:23.442Z,3.35
2023-01-01T16:09:57.455Z,3.28
2023-01-01T16:12:25.738Z,3.15
2023-01-01T16:14:53.246Z,3.20
2023-01-01T16:17:22.052Z,3.88
2023-01-01T16:19:51.756Z,3.92
2023-01-01T16:22:20.073Z,3.50
2023-01-01T16:24:47.579Z,2.88
2023-01-01T16:27:15.089Z,3.20
2023-01-01T16:29:43.858Z,3.72
2023-01-01T16:32:17.904Z,3.65
2023-01-01T16:34:45.535Z,3.60
2023-01-01T16:37:14.370Z,3.47
2023-01-01T16:39:41.849Z,2.80
2023-01-01T16:42:12.354Z,2.83
2023-01-01T16:44:41.870Z,2.60
2023-01-01T16:47:09.580Z,3.20
2023-01-01T16:49:37.090Z,3.60
2023-01-01T16:52:04.785Z,3.53
2023-01-01T16:54:34.979Z,3.40
2023-01-01T16:57:02.497Z,2.88
2023-01-01T16:59:29.956Z,3.80
2023-01-01T17:01:57.634Z,4.45
2023-01-01T17:04:25.706Z,4.10
2023-01-01T17:06:53.198Z,4.13
2023-01-01T17:09:20.695Z,3.85
2023-01-01T17:11:49.522Z,3.92
2023-01-01T17:14:18.060Z,3.50
2023-01-01T17:16:45.594Z,3.03
2023-01-01T17:19:16.030Z,3.30
2023-01-01T17:21:45.141Z,3.15
2023-01-01T17:24:12.814Z,3.17
2023-01-01T17:26:40.357Z,2.90
2023-01-01T17:29:09.528Z,3.30
2023-01-01T17:31:37.151Z,3.28
2023-01-01T17:34:04.895Z,3.65
2023-01-01T17:36:32.454Z,4.18
2023-01-01T17:38:59.959Z,4.03
2023-01-01T17:41:27.501Z,4.03
2023-01-01T17:43:55.030Z,3.72
2023-01-01T17:46:26.070Z,4.15
2023-01-01T17:48:54.242Z,4.23
2023-01-01T17:51:22.545Z,4.32
2023-01-01T17:53:50.649Z,4.00
2023-01-01T17:56:20.296Z,4.20
2023-01-01T17:58:48.785Z,4.43
2023-01-01T18:01:31.700Z,4.63
2023-01-01T18:04:01.262Z,4.10
2023-01-01T18:06:30.020Z,4.28
2023-01-01T18:08:58.322Z,4.20
2023-01-01T18:11:28.446Z,4.40
2023-01-01T18:13:56.145Z,4.55
2023-01-01T18:16:23.747Z,4.40
2023-01-01T18:18:52.898Z,4.80
2023-01-01T18:21:23.500Z,4.32
2023-01-01T18:23:52.680Z,4.53
2023-01-01T18:26:21.290Z,4.47
2023-01-01T18:28:52.490Z,4.20
2023-01-01T18:31:20.632Z,4.53
2023-01-01T18:33:48.275Z,4.13
2023-01-01T18:36:19.273Z,4.32
2023-01-01T18:38:54.188Z,4.20
2023-01-01T18:41:35.974Z,4.10
2023-01-01T18:44:03.532Z,4.28
2023-01-01T18:46:37.779Z,4.25
2023-01-01T18:49:09.548Z,4.03
2023-01-01T18:51:38.618Z,4.30
2023-01-01T18:54:12.813Z,5.05
2023-01-01T18:56:40.507Z,4.80
2023-01-01T18:59:20.205Z,5.25
2023-01-01T23:34:33.641Z,2.60
2023-01-01T23:37:03.636Z,2.40
2023-01-01T23:39:38.918Z,2.20
2023-01-01T23:48:39.417Z,2.55
2023-01-01T23:51:37.997Z,2.28
2023-01-01T23:57:19.681Z,2.40
